Time;durP1;ratioP1;P1;durP2;ratioP2;P2;SDS_P1;SDS_P2;PMS_P1;PMS_P2;Temp;Humidity;BMP_temperature;BMP_pressure;BME280_temperature;BME280_humidity;BME280_pressure;Samples;Min_cycle;Max_cycle;Signal;HPM_P1;HPM_P2
2023/06/16 00:01:23;;;;;;;6.47;5.70;;;17.40;99.90;;;;;;5053070;28;20046;-71
2023/06/16 00:03:52;;;;;;;7.35;4.80;;;17.20;99.90;;;;;;5054251;28;20040;-70
2023/06/16 00:06:19;;;;;;;6.43;5.00;;;17.50;99.90;;;;;;5056476;28;20103;-71
2023/06/16 00:08:47;;;;;;;8.63;5.30;;;17.30;99.90;;;;;;5039980;28;20029;-70
2023/06/16 00:11:14;;;;;;;6.22;4.78;;;17.90;99.90;;;;;;5056742;28;20040;-70
2023/06/16 00:13:39;;;;;;;8.32;5.38;;;17.10;99.90;;;;;;5056819;28;20102;-70
2023/06/16 00:16:05;;;;;;;8.75;4.78;;;17.20;99.90;;;;;;5056211;28;20068;-71
2023/06/16 00:18:31;;;;;;;7.90;5.28;;;17.00;99.90;;;;;;5056396;28;20170;-70
2023/06/16 00:21:00;;;;;;;8.77;5.68;;;16.90;99.90;;;;;;5039880;28;20041;-71
2023/06/16 00:23:26;;;;;;;9.43;5.53;;;16.90;99.90;;;;;;5056296;28;20429;-71
2023/06/16 00:25:52;;;;;;;8.00;5.68;;;17.10;99.90;;;;;;5056120;28;20050;-70
2023/06/16 00:28:17;;;;;;;6.88;5.10;;;16.80;99.90;;;;;;5056112;28;20040;-70
2023/06/16 00:30:43;;;;;;;8.70;5.35;;;17.00;99.90;;;;;;5056415;28;20039;-70
2023/06/16 00:33:10;;;;;;;9.93;5.18;;;16.70;99.90;;;;;;5039656;28;20064;-71
2023/06/16 00:35:35;;;;;;;12.18;6.10;;;17.00;99.90;;;;;;5039492;28;20036;-70
2023/06/16 00:38:01;;;;;;;8.73;5.55;;;16.80;99.90;;;;;;5056117;28;20081;-69
2023/06/16 00:40:27;;;;;;;7.90;5.63;;;16.60;99.90;;;;;;5056276;28;20080;-70
2023/06/16 00:42:53;;;;;;;10.43;6.03;;;16.60;99.90;;;;;;5056078;28;20041;-70
2023/06/16 00:45:19;;;;;;;7.65;5.65;;;16.50;99.90;;;;;;5056079;28;20109;-70
2023/06/16 00:47:45;;;;;;;7.63;5.80;;;16.50;99.90;;;;;;5055682;28;20489;-71
2023/06/16 00:50:11;;;;;;;7.93;5.53;;;16.20;99.90;;;;;;5055565;28;20037;-70
2023/06/16 00:52:38;;;;;;;6.13;5.35;;;16.40;99.90;;;;;;5055834;28;20082;-70
2023/06/16 00:55:08;;;;;;;6.45;5.75;;;16.10;99.90;;;;;;5055863;28;20083;-69
2023/06/16 00:57:34;;;;;;;9.68;5.60;;;16.10;99.90;;;;;;5055644;28;20446;-70
2023/06/16 01:00:00;;;;;;;7.97;6.15;;;16.20;99.90;;;;;;5055627;28;20097;-71
2023/06/16 01:02:26;;;;;;;10.77;6.07;;;16.30;99.90;;;;;;5055663;28;20048;-71
2023/06/16 01:04:54;;;;;;;11.48;5.70;;;16.20;99.90;;;;;;5074717;28;20491;-70
2023/06/16 01:07:42;;;;;;;9.13;5.63;;;16.10;99.90;;;;;;5075125;28;20180;-70
2023/06/16 01:10:17;;;;;;;9.32;5.75;;;16.30;99.90;;;;;;5075581;28;20052;-70
2023/06/16 01:13:12;;;;;;;8.80;5.50;;;16.20;99.90;;;;;;5059431;28;20037;-70
2023/06/16 01:15:41;;;;;;;6.72;5.63;;;16.30;99.90;;;;;;5024117;28;20445;-71
2023/06/16 01:18:08;;;;;;;8.00;5.82;;;16.30;99.90;;;;;;5075416;28;20040;-70
2023/06/16 01:20:55;;;;;;;9.32;5.95;;;16.30;99.90;;;;;;5075746;28;20044;-70
2023/06/16 01:23:35;;;;;;;10.27;5.20;;;16.30;99.90;;;;;;5093559;28;20036;-70
2023/06/16 01:26:02;;;;;;;8.57;5.07;;;16.40;99.90;;;;;;5074862;28;20036;-70
2023/06/16 01:28:30;;;;;;;9.40;5.80;;;16.50;99.90;;;;;;5075068;28;20047;-70
2023/06/16 01:30:59;;;;;;;9.25;5.93;;;16.20;99.90;;;;;;5075544;28;20032;-70
2023/06/16 01:33:26;;;;;;;8.88;5.80;;;16.20;99.90;;;;;;5075387;28;20101;-70
2023/06/16 01:35:53;;;;;;;11.00;6.70;;;16.50;99.90;;;;;;5074982;28;20054;-70
2023/06/16 01:38:22;;;;;;;9.45;7.45;;;16.40;99.90;;;;;;5074862;28;20044;-70
2023/06/16 01:40:51;;;;;;;11.05;7.32;;;16.30;99.90;;;;;;5074985;28;20036;-70
2023/06/16 01:43:17;;;;;;;11.85;9.20;;;17.20;99.90;;;;;;5058431;28;20071;-71
2023/06/16 01:45:44;;;;;;;10.88;8.05;;;16.50;99.90;;;;;;5074789;28;20393;-70
2023/06/16 01:48:10;;;;;;;12.82;9.57;;;16.50;99.90;;;;;;5074649;28;20051;-70
2023/06/16 01:50:36;;;;;;;12.07;9.23;;;16.30;99.90;;;;;;5093063;28;20040;-70
2023/06/16 01:53:01;;;;;;;10.52;8.65;;;16.40;99.90;;;;;;5074684;28;20040;-70
2023/06/16 01:55:27;;;;;;;15.43;8.95;;;16.50;99.90;;;;;;5092434;28;20032;-70
2023/06/16 01:57:53;;;;;;;12.15;8.73;;;16.40;99.90;;;;;;5058171;28;20392;-70
2023/06/16 02:00:31;;;;;;;9.32;8.32;;;16.30;99.90;;;;;;5074578;28;20083;-70
2023/06/16 02:03:19;;;;;;;11.88;8.75;;;16.40;99.90;;;;;;5074692;28;20097;-70
2023/06/16 02:05:49;;;;;;;10.60;9.48;;;16.40;99.90;;;;;;5074279;28;20059;-71
2023/06/16 02:08:16;;;;;;;12.25;9.85;;;16.30;99.90;;;;;;5074220;28;20044;-70
2023/06/16 02:10:41;;;;;;;13.07;10.20;;;16.40;99.90;;;;;;5074488;28;20040;-70
2023/06/16 02:13:08;;;;;;;15.40;10.38;;;16.40;99.90;;;;;;5074604;28;20164;-70
2023/06/16 02:15:33;;;;;;;14.43;10.82;;;16.30;99.90;;;;;;5073966;28;20077;-70
2023/06/16 02:17:59;;;;;;;12.38;10.90;;;16.30;99.90;;;;;;5074188;28;20381;-70
2023/06/16 02:20:25;;;;;;;14.15;12.15;;;16.10;99.90;;;;;;5074263;28;20040;-71
2023/06/16 02:22:51;;;;;;;15.52;11.30;;;16.30;99.90;;;;;;5074221;28;20086;-70
2023/06/16 02:25:17;;;;;;;13.23;10.60;;;16.30;99.90;;;;;;5092488;28;20040;-70
2023/06/16 02:27:43;;;;;;;16.83;12.65;;;16.20;99.90;;;;;;5073570;28;20416;-70
2023/06/16 02:30:11;;;;;;;16.50;13.27;;;16.30;99.90;;;;;;5073945;28;20044;-70
2023/06/16 02:32:37;;;;;;;17.27;13.48;;;16.00;99.90;;;;;;5074137;28;20118;-70
2023/06/16 02:35:06;;;;;;;19.55;15.15;;;16.10;99.90;;;;;;5073875;28;20086;-70
2023/06/16 02:37:35;;;;;;;16.75;14.07;;;16.20;99.90;;;;;;5073542;28;20074;-70
2023/06/16 02:40:05;;;;;;;20.70;14.70;;;16.10;99.90;;;;;;5073767;28;20051;-70
2023/06/16 02:42:32;;;;;;;16.40;14.68;;;16.10;99.90;;;;;;5057371;28;20051;-70
2023/06/16 02:44:57;;;;;;;16.13;14.40;;;16.10;99.90;;;;;;5073850;28;20519;-69
2023/06/16 02:47:23;;;;;;;16.88;14.40;;;16.10;99.90;;;;;;5073343;28;20032;-70
2023/06/16 02:49:49;;;;;;;16.65;14.93;;;15.90;99.90;;;;;;5073751;28;20185;-70
2023/06/16 02:52:14;;;;;;;17.33;15.50;;;16.00;99.90;;;;;;5074051;28;20044;-70
2023/06/16 02:54:40;;;;;;;18.23;16.33;;;15.80;99.90;;;;;;5073813;28;20036;-70
2023/06/16 02:57:07;;;;;;;20.80;17.05;;;15.90;99.90;;;;;;5056905;28;20135;-70
2023/06/16 02:59:34;;;;;;;20.25;17.38;;;15.90;99.90;;;;;;5073682;28;20511;-70
2023/06/16 03:02:00;;;;;;;20.50;16.98;;;15.80;99.90;;;;;;5074028;28;20040;-70
2023/06/16 03:04:25;;;;;;;21.92;18.05;;;15.80;99.90;;;;;;5057198;28;20044;-70
2023/06/16 03:06:58;;;;;;;20.20;18.05;;;15.90;99.90;;;;;;5056454;28;20036;-70
2023/06/16 03:09:26;;;;;;;21.98;19.67;;;15.90;99.90;;;;;;5073726;28;20040;-70
2023/06/16 03:11:55;;;;;;;27.65;18.73;;;15.80;99.90;;;;;;5056827;28;20040;-70
2023/06/16 03:14:21;;;;;;;21.73;18.52;;;15.80;99.90;;;;;;5073493;28;20115;-70
2023/06/16 03:16:48;;;;;;;25.90;20.35;;;15.70;99.90;;;;;;5073176;28;20055;-69
2023/06/16 03:19:18;;;;;;;21.92;19.63;;;15.50;99.90;;;;;;5056590;28;20119;-70
2023/06/16 03:21:50;;;;;;;26.02;20.25;;;15.70;99.90;;;;;;5073683;28;20079;-70
2023/06/16 03:24:18;;;;;;;23.30;20.80;;;15.80;99.90;;;;;;5073562;28;20044;-70
2023/06/16 03:26:45;;;;;;;29.17;22.60;;;15.70;99.90;;;;;;5072882;28;20055;-70
2023/06/16 03:29:12;;;;;;;26.65;22.88;;;15.80;99.90;;;;;;5091305;28;20121;-70
2023/06/16 03:31:38;;;;;;;23.35;20.85;;;15.70;99.90;;;;;;5073740;28;20127;-70
2023/06/16 03:34:04;;;;;;;24.63;21.83;;;15.90;99.90;;;;;;5073633;28;20404;-70
2023/06/16 03:36:36;;;;;;;26.73;22.67;;;15.90;99.90;;;;;;5073244;28;20385;-70
2023/06/16 03:39:03;;;;;;;24.88;22.15;;;15.80;99.90;;;;;;5075175;28;20395;-70
2023/06/16 03:41:29;;;;;;;25.63;21.52;;;;;;;;;;5077247;28;20040;-70
2023/06/16 03:43:55;;;;;;;29.02;24.63;;;15.70;99.90;;;;;;5060638;28;20118;-70
2023/06/16 03:46:20;;;;;;;25.45;22.80;;;15.80;99.90;;;;;;5094892;28;20119;-70
2023/06/16 03:48:46;;;;;;;30.67;24.02;;;15.80;99.90;;;;;;5076981;28;20414;-70
2023/06/16 03:51:12;;;;;;;25.50;22.88;;;15.70;99.90;;;;;;5077299;28;20053;-70
2023/06/16 03:53:38;;;;;;;27.25;23.83;;;;;;;;;;5077106;28;20136;-70
2023/06/16 03:56:03;;;;;;;27.67;22.65;;;15.70;99.90;;;;;;5076503;28;20040;-71
2023/06/16 03:58:30;;;;;;;29.52;23.60;;;15.90;99.90;;;;;;5076792;28;20040;-70
2023/06/16 04:00:56;;;;;;;28.10;21.00;;;15.80;99.90;;;;;;5060535;28;20071;-70
2023/06/16 04:03:25;;;;;;;27.50;22.15;;;15.70;99.90;;;;;;5077031;28;20040;-70
2023/06/16 04:05:52;;;;;;;28.05;21.83;;;15.70;99.90;;;;;;5076469;28;20101;-70
2023/06/16 04:08:18;;;;;;;27.58;22.98;;;15.90;99.90;;;;;;5076561;28;20048;-69
2023/06/16 04:10:43;;;;;;;29.77;23.90;;;15.70;99.90;;;;;;5094899;28;20043;-70
2023/06/16 04:13:09;;;;;;;25.77;22.98;;;15.60;99.90;;;;;;5076742;28;20499;-70
2023/06/16 04:15:35;;;;;;;24.48;20.30;;;;;;;;;;5076351;28;20032;-70
2023/06/16 04:18:01;;;;;;;25.27;19.25;;;;;;;;;;5076505;28;20112;-70
2023/06/16 04:20:26;;;;;;;22.88;18.77;;;15.80;99.90;;;;;;5059964;28;20503;-71
2023/06/16 04:22:52;;;;;;;25.00;19.00;;;15.90;99.90;;;;;;5076447;28;20051;-70
2023/06/16 04:25:17;;;;;;;29.30;19.98;;;15.70;99.90;;;;;;5076742;28;20079;-70
2023/06/16 04:27:43;;;;;;;20.10;17.98;;;15.70;99.90;;;;;;5076146;28;20040;-70
2023/06/16 04:30:09;;;;;;;24.20;18.15;;;15.60;99.90;;;;;;5094629;28;20113;-70
2023/06/16 04:32:36;;;;;;;19.48;17.35;;;15.70;99.90;;;;;;5076575;28;20043;-71
2023/06/16 04:35:06;;;;;;;23.23;18.27;;;15.80;99.90;;;;;;5076301;28;20040;-71
2023/06/16 04:37:32;;;;;;;22.90;17.67;;;15.70;99.90;;;;;;5076067;28;20047;-70
2023/06/16 04:39:58;;;;;;;20.13;16.73;;;16.00;99.90;;;;;;5076320;28;20142;-70
2023/06/16 04:42:24;;;;;;;20.65;17.77;;;15.90;99.90;;;;;;5076171;28;20075;-70
2023/06/16 04:44:50;;;;;;;19.60;17.50;;;16.00;99.90;;;;;;5059505;28;20063;-70
2023/06/16 04:47:15;;;;;;;24.40;19.23;;;15.90;99.90;;;;;;5059079;28;20097;-70
2023/06/16 04:49:41;;;;;;;25.75;20.58;;;16.00;99.90;;;;;;5058437;28;20406;-70
2023/06/16 04:52:06;;;;;;;26.02;21.65;;;16.20;99.90;;;;;;5075538;28;20105;-70
2023/06/16 04:54:32;;;;;;;33.58;23.90;;;16.30;99.90;;;;;;5075990;28;20036;-70
2023/06/16 04:56:59;;;;;;;25.40;22.00;;;;;;;;;;5075590;28;20040;-70
2023/06/16 04:59:25;;;;;;;29.80;23.83;;;16.50;99.90;;;;;;5075693;28;20163;-70
2023/06/16 05:01:50;;;;;;;24.23;19.88;;;16.60;99.90;;;;;;5093847;28;20431;-70
2023/06/16 05:04:17;;;;;;;26.42;22.55;;;16.60;99.90;;;;;;5059152;28;20040;-70
2023/06/16 05:06:43;;;;;;;29.52;23.65;;;16.60;99.90;;;;;;5075529;28;20032;-70
2023/06/16 05:09:09;;;;;;;25.98;23.00;;;16.50;99.90;;;;;;5075655;28;20144;-70
2023/06/16 05:11:34;;;;;;;28.10;23.05;;;16.40;99.90;;;;;;5058936;28;20035;-70
2023/06/16 05:14:00;;;;;;;25.15;20.27;;;16.80;99.90;;;;;;5075616;28;20077;-70
2023/06/16 05:16:26;;;;;;;23.10;20.65;;;;;;;;;;5075329;28;20044;-70
2023/06/16 05:18:52;;;;;;;22.63;20.23;;;16.80;99.90;;;;;;5058748;28;20044;-70
2023/06/16 05:21:24;;;;;;;24.42;21.80;;;;;;;;;;5075648;28;20043;-70
2023/06/16 05:23:50;;;;;;;22.98;19.35;;;;;;;;;;5075801;28;20066;-70
2023/06/16 05:26:16;;;;;;;23.40;20.58;;;17.00;99.90;;;;;;5058239;28;20184;-70
2023/06/16 05:28:42;;;;;;;23.65;20.73;;;;;;;;;;5075654;28;20072;-71
2023/06/16 05:31:08;;;;;;;23.77;19.17;;;17.00;99.90;;;;;;5058923;28;20591;-70
2023/06/16 05:33:33;;;;;;;27.70;22.13;;;17.30;99.90;;;;;;5075624;28;20047;-70
2023/06/16 05:35:59;;;;;;;24.35;21.60;;;17.40;99.90;;;;;;5074969;28;20036;-71
2023/06/16 05:38:26;;;;;;;24.92;22.02;;;;;;;;;;5074881;28;20093;-70
2023/06/16 05:40:52;;;;;;;23.88;20.20;;;17.60;99.90;;;;;;5093467;28;20044;-70
2023/06/16 05:43:17;;;;;;;26.90;20.27;;;17.30;99.90;;;;;;5093274;28;20564;-70
2023/06/16 05:45:43;;;;;;;26.75;22.23;;;17.70;99.90;;;;;;5092793;28;20127;-70
2023/06/16 05:48:09;;;;;;;24.17;21.00;;;17.60;99.90;;;;;;5074817;28;20127;-70
2023/06/16 05:50:34;;;;;;;23.23;20.55;;;17.70;99.90;;;;;;5074389;28;20503;-71
2023/06/16 05:53:00;;;;;;;23.95;19.15;;;17.80;99.90;;;;;;5074848;28;20085;-70
2023/06/16 05:55:26;;;;;;;26.02;19.92;;;17.90;99.90;;;;;;5074357;28;20060;-69
2023/06/16 05:57:51;;;;;;;24.45;19.50;;;17.80;99.90;;;;;;5092898;28;20063;-70
2023/06/16 06:00:17;;;;;;;29.65;20.27;;;18.00;99.90;;;;;;5074551;28;20052;-70
2023/06/16 06:02:43;;;;;;;26.30;20.65;;;18.10;99.90;;;;;;5084994;28;20043;-69
2023/06/16 06:05:09;;;;;;;23.15;18.95;;;;;;;;;;5050148;28;20162;-70
2023/06/16 06:07:35;;;;;;;27.27;18.50;;;18.30;99.90;;;;;;5049600;28;20527;-70
2023/06/16 06:10:01;;;;;;;25.95;21.20;;;18.30;99.90;;;;;;5050092;28;20040;-70
2023/06/16 06:12:26;;;;;;;25.52;19.00;;;18.40;99.90;;;;;;5050144;28;20040;-69
2023/06/16 06:14:52;;;;;;;27.33;18.38;;;18.70;99.90;;;;;;5050178;28;20093;-68
2023/06/16 06:17:17;;;;;;;27.77;19.48;;;18.80;99.90;;;;;;5032782;28;20139;-70
2023/06/16 06:19:43;;;;;;;21.73;18.48;;;18.50;99.90;;;;;;5049556;28;20044;-68
2023/06/16 06:22:09;;;;;;;18.90;16.55;;;18.80;99.90;;;;;;5048883;28;20045;-69
2023/06/16 06:24:34;;;;;;;26.13;18.30;;;18.90;99.90;;;;;;5031125;28;20522;-70
2023/06/16 06:27:00;;;;;;;19.85;16.08;;;19.50;99.90;;;;;;5032492;28;20060;-67
2023/06/16 06:29:26;;;;;;;21.80;16.40;;;19.30;99.90;;;;;;5031084;28;20672;-70
2023/06/16 06:31:51;;;;;;;19.08;14.85;;;19.20;99.90;;;;;;5065719;28;20522;-70
2023/06/16 06:34:17;;;;;;;17.30;14.40;;;19.30;99.90;;;;;;5036606;28;20085;-70
2023/06/16 06:36:42;;;;;;;17.45;14.27;;;19.50;99.90;;;;;;5043417;28;20618;-71
2023/06/16 06:39:11;;;;;;;19.73;14.75;;;19.50;99.90;;;;;;5045850;28;20120;-70
2023/06/16 06:41:40;;;;;;;19.25;13.55;;;19.50;99.90;;;;;;5033745;28;20131;-70
2023/06/16 06:44:05;;;;;;;17.80;12.23;;;19.70;99.90;;;;;;5047030;28;20601;-71
2023/06/16 06:46:31;;;;;;;19.83;12.30;;;19.80;99.90;;;;;;5022573;28;20040;-68
2023/06/16 06:48:57;;;;;;;20.55;12.63;;;20.90;99.90;;;;;;5052403;28;20153;-69
2023/06/16 06:51:23;;;;;;;16.58;12.95;;;20.00;99.90;;;;;;5046538;28;20497;-67
2023/06/16 06:53:52;;;;;;;13.93;11.45;;;20.00;99.90;;;;;;5049452;28;20515;-70
2023/06/16 06:56:18;;;;;;;13.40;11.63;;;20.00;99.90;;;;;;5059483;28;20043;-70
2023/06/16 06:58:43;;;;;;;11.68;9.90;;;21.00;99.90;;;;;;5042286;28;20051;-69
2023/06/16 07:01:09;;;;;;;11.23;9.98;;;20.40;99.90;;;;;;5046240;28;20397;-68
2023/06/16 07:03:35;;;;;;;13.77;10.05;;;20.40;99.90;;;;;;5048672;28;20062;-70
2023/06/16 07:06:01;;;;;;;11.63;10.43;;;21.10;99.90;;;;;;5048153;28;20051;-69
2023/06/16 07:08:27;;;;;;;12.18;10.15;;;20.50;99.90;;;;;;5039003;28;20354;-70
2023/06/16 07:10:52;;;;;;;11.43;9.48;;;20.50;99.90;;;;;;5044879;28;20064;-69
2023/06/16 07:13:18;;;;;;;11.05;9.30;;;20.90;99.90;;;;;;5047984;28;20040;-69
2023/06/16 07:15:43;;;;;;;15.93;9.45;;;21.10;99.90;;;;;;5047770;28;20037;-70
2023/06/16 07:18:09;;;;;;;14.63;9.88;;;21.00;99.90;;;;;;5045282;28;20053;-70
2023/06/16 07:20:35;;;;;;;12.40;8.75;;;21.90;99.90;;;;;;5042797;28;20040;-71
2023/06/16 07:23:00;;;;;;;14.25;9.88;;;20.80;99.90;;;;;;5044458;28;20078;-69
2023/06/16 07:25:28;;;;;;;11.85;9.10;;;21.20;99.90;;;;;;5048364;28;20123;-70
2023/06/16 07:27:54;;;;;;;11.57;10.18;;;21.20;99.90;;;;;;5048003;28;20094;-67
2023/06/16 07:30:19;;;;;;;18.30;12.73;;;21.10;99.90;;;;;;5038487;28;20052;-69
2023/06/16 07:32:45;;;;;;;9.85;8.75;;;21.30;99.90;;;;;;5035779;28;20041;-71
2023/06/16 07:35:11;;;;;;;11.95;10.05;;;21.30;99.90;;;;;;5015641;28;20045;-70
2023/06/16 07:37:37;;;;;;;13.60;9.95;;;21.10;99.90;;;;;;5031840;28;20044;-70
2023/06/16 07:40:06;;;;;;;13.60;8.48;;;21.50;99.90;;;;;;5050386;28;20407;-70
2023/06/16 07:42:32;;;;;;;9.35;7.63;;;21.20;99.90;;;;;;5053083;28;20052;-71
2023/06/16 07:44:57;;;;;;;10.05;7.95;;;21.30;99.90;;;;;;5043896;28;20411;-71
2023/06/16 07:47:23;;;;;;;11.32;9.32;;;21.70;99.90;;;;;;5046503;28;20080;-70
2023/06/16 07:49:49;;;;;;;14.70;9.40;;;22.40;99.90;;;;;;5049360;28;20048;-70
2023/06/16 07:52:15;;;;;;;9.85;8.35;;;22.10;99.90;;;;;;5033698;28;20044;-71
2023/06/16 07:54:41;;;;;;;10.50;9.30;;;21.90;99.90;;;;;;5022133;28;20489;-71
2023/06/16 07:57:07;;;;;;;11.75;8.10;;;23.00;99.90;;;;;;5024727;28;20040;-71
2023/06/16 07:59:33;;;;;;;11.65;8.82;;;21.90;99.90;;;;;;5039977;28;20040;-71
2023/06/16 08:02:00;;;;;;;12.35;8.60;;;22.00;99.90;;;;;;5049347;28;20040;-71
2023/06/16 08:04:29;;;;;;;9.15;7.68;;;21.80;99.90;;;;;;5043884;28;20047;-70
2023/06/16 08:06:56;;;;;;;8.65;6.63;;;23.00;99.90;;;;;;5051306;28;20032;-71
2023/06/16 08:09:23;;;;;;;9.10;7.75;;;22.10;99.90;;;;;;5038866;28;20041;-69
2023/06/16 08:11:49;;;;;;;10.52;5.53;;;22.20;99.90;;;;;;5028087;28;20484;-70
2023/06/16 08:14:14;;;;;;;6.70;5.68;;;22.30;99.90;;;;;;5042643;28;20051;-71
2023/06/16 08:16:40;;;;;;;6.20;5.40;;;22.40;99.90;;;;;;5046907;28;20112;-71
2023/06/16 08:19:08;;;;;;;7.30;5.63;;;22.10;99.90;;;;;;5032136;28;20436;-70
2023/06/16 08:21:37;;;;;;;7.50;6.68;;;22.30;99.90;;;;;;5064566;28;20040;-71
2023/06/16 08:24:03;;;;;;;10.57;6.25;;;22.60;99.60;;;;;;5049072;28;20545;-71
2023/06/16 08:26:29;;;;;;;5.00;4.15;;;22.60;99.90;;;;;;5039633;28;20040;-70
2023/06/16 08:28:54;;;;;;;7.07;4.18;;;22.60;99.30;;;;;;5068162;28;20040;-70
2023/06/16 08:31:20;;;;;;;5.63;4.80;;;22.60;99.00;;;;;;5051633;28;20079;-70
2023/06/16 08:33:46;;;;;;;6.97;5.13;;;24.40;98.80;;;;;;5047375;28;20047;-70
2023/06/16 08:36:12;;;;;;;9.20;5.28;;;23.30;98.80;;;;;;5045156;28;20115;-71
2023/06/16 08:38:38;;;;;;;5.90;3.63;;;22.80;98.80;;;;;;5027781;28;20041;-70
2023/06/16 08:41:08;;;;;;;5.20;3.78;;;23.50;98.10;;;;;;5047950;28;20133;-71
2023/06/16 08:43:37;;;;;;;5.57;3.80;;;23.00;98.40;;;;;;5029802;28;20082;-70
2023/06/16 08:46:08;;;;;;;6.72;3.33;;;22.70;98.20;;;;;;5044023;28;20044;-70
2023/06/16 08:48:36;;;;;;;5.47;3.58;;;22.80;97.80;;;;;;5040151;28;20045;-71
2023/06/16 08:51:03;;;;;;;5.35;3.72;;;23.50;97.10;;;;;;5028076;28;20025;-70
2023/06/16 08:53:33;;;;;;;4.60;3.20;;;23.00;97.30;;;;;;5046057;28;20441;-70
2023/06/16 08:56:02;;;;;;;6.00;3.35;;;23.20;96.30;;;;;;5029750;28;20032;-70
2023/06/16 08:58:32;;;;;;;5.47;3.40;;;23.60;96.50;;;;;;5045334;28;20492;-70
2023/06/16 09:00:59;;;;;;;3.85;3.22;;;23.30;95.70;;;;;;5020448;28;20424;-71
2023/06/16 09:03:29;;;;;;;6.38;4.63;;;23.20;95.60;;;;;;5036946;28;20067;-71
2023/06/16 09:05:54;;;;;;;5.78;3.78;;;24.50;95.10;;;;;;5035466;28;20048;-70
2023/06/16 09:08:20;;;;;;;4.78;2.80;;;23.20;94.60;;;;;;5035641;28;20048;-71
2023/06/16 09:10:54;;;;;;;4.07;3.17;;;23.40;93.90;;;;;;5019679;28;20120;-71
2023/06/16 09:13:21;;;;;;;4.68;2.72;;;23.70;93.80;;;;;;5035637;28;20048;-71
2023/06/16 09:15:48;;;;;;;6.43;3.20;;;23.20;93.80;;;;;;5018895;28;20183;-71
2023/06/16 09:18:15;;;;;;;4.55;3.53;;;24.20;93.90;;;;;;5069267;28;20044;-71
2023/06/16 09:20:41;;;;;;;4.05;2.72;;;23.70;93.50;;;;;;5075678;28;20487;-71
2023/06/16 09:23:08;;;;;;;3.42;2.60;;;24.00;93.30;;;;;;5059067;28;20503;-71
2023/06/16 09:25:35;;;;;;;7.18;3.90;;;23.20;93.80;;;;;;5075128;28;20044;-70
2023/06/16 09:28:09;;;;;;;6.07;2.88;;;23.50;93.60;;;;;;5075193;28;20050;-70
2023/06/16 09:30:36;;;;;;;5.00;2.65;;;23.60;93.10;;;;;;5093296;28;20036;-71
2023/06/16 09:33:02;;;;;;;4.30;2.78;;;23.70;93.50;;;;;;5075310;28;20084;-71
2023/06/16 09:35:30;;;;;;;8.75;3.97;;;23.60;93.70;;;;;;5074935;28;20074;-71
2023/06/16 09:37:57;;;;;;;4.38;3.25;;;23.60;93.40;;;;;;5073409;28;20044;-69
2023/06/16 09:40:33;;;;;;;7.35;3.45;;;24.60;93.80;;;;;;5037453;28;20531;-71
2023/06/16 09:43:01;;;;;;;2.90;2.20;;;23.70;93.10;;;;;;5041492;28;20037;-71
2023/06/16 09:45:31;;;;;;;3.53;2.65;;;23.90;93.20;;;;;;5051354;28;20463;-71
2023/06/16 09:48:05;;;;;;;4.13;3.33;;;23.70;92.70;;;;;;5051629;28;20037;-71
2023/06/16 09:50:31;;;;;;;4.75;2.67;;;23.90;92.70;;;;;;5047213;28;20560;-71
2023/06/16 09:52:57;;;;;;;4.22;2.65;;;23.80;92.90;;;;;;5040114;28;20033;-71
2023/06/16 09:55:27;;;;;;;3.83;2.85;;;23.80;93.00;;;;;;5043209;28;20055;-71
2023/06/16 09:57:53;;;;;;;3.72;2.58;;;23.90;92.80;;;;;;5037294;28;20186;-71
2023/06/16 10:00:19;;;;;;;4.40;2.10;;;24.00;92.50;;;;;;5037945;28;20048;-71
2023/06/16 10:02:50;;;;;;;5.20;3.50;;;24.20;92.20;;;;;;5031979;28;20041;-71
2023/06/16 10:05:18;;;;;;;4.90;2.60;;;24.40;92.60;;;;;;5043365;28;20041;-71
2023/06/16 10:07:49;;;;;;;3.50;2.80;;;24.60;92.20;;;;;;5027763;28;20090;-69
2023/06/16 10:10:15;;;;;;;4.55;2.50;;;24.20;91.90;;;;;;5035344;28;20091;-71
2023/06/16 10:12:47;;;;;;;2.42;2.13;;;24.00;92.30;;;;;;5035017;28;20404;-71
2023/06/16 10:15:18;;;;;;;7.68;2.72;;;24.40;92.30;;;;;;5034869;28;20507;-71
2023/06/16 10:17:46;;;;;;;4.68;2.22;;;24.30;91.40;;;;;;5059730;28;20140;-69
2023/06/16 10:20:15;;;;;;;3.58;2.70;;;24.50;92.10;;;;;;5074461;28;20055;-71
2023/06/16 10:22:42;;;;;;;5.32;2.80;;;24.60;91.60;;;;;;5092387;28;20046;-71
2023/06/16 10:25:08;;;;;;;6.53;3.13;;;24.60;91.60;;;;;;5074190;28;20116;-71
2023/06/16 10:27:35;;;;;;;5.68;2.58;;;24.20;91.10;;;;;;5061464;28;20062;-71
2023/06/16 10:30:02;;;;;;;2.40;2.20;;;24.30;92.10;;;;;;5050223;28;20389;-69
2023/06/16 10:32:28;;;;;;;3.80;2.92;;;24.40;91.40;;;;;;5053972;28;20025;-70
2023/06/16 10:34:56;;;;;;;4.65;3.22;;;24.40;91.70;;;;;;5054277;28;20040;-71
2023/06/16 10:37:29;;;;;;;6.03;2.78;;;24.20;91.00;;;;;;5053944;28;20049;-70
2023/06/16 10:39:56;;;;;;;5.65;4.13;;;24.40;91.70;;;;;;5046432;28;20051;-71
2023/06/16 10:42:22;;;;;;;6.45;3.90;;;24.60;91.60;;;;;;5049515;28;20119;-72
2023/06/16 10:44:47;;;;;;;6.32;2.50;;;24.70;91.70;;;;;;5047189;28;20131;-67
2023/06/16 10:47:13;;;;;;;5.20;2.50;;;24.70;91.60;;;;;;5032944;28;20040;-70
2023/06/16 10:50:00;;;;;;;6.55;2.63;;;24.40;91.20;;;;;;5049619;28;20090;-72
2023/06/16 10:52:28;;;;;;;3.17;2.58;;;24.30;90.60;;;;;;5049264;28;20116;-71
2023/06/16 10:54:58;;;;;;;6.25;2.35;;;25.10;91.80;;;;;;5051150;28;20040;-72
2023/06/16 10:57:25;;;;;;;2.97;2.40;;;24.70;91.70;;;;;;5032746;28;20048;-72
2023/06/16 10:59:54;;;;;;;7.38;3.97;;;24.80;91.70;;;;;;5041882;28;20033;-69
2023/06/16 11:02:34;;;;;;;5.25;2.65;;;24.90;91.60;;;;;;5038942;28;20047;-72
2023/06/16 11:05:09;;;;;;;11.18;3.70;;;24.30;90.90;;;;;;5037765;28;20033;-72
2023/06/16 11:07:48;;;;;;;5.25;2.45;;;25.30;91.70;;;;;;5039209;28;20040;-72
2023/06/16 11:10:20;;;;;;;3.83;2.30;;;24.70;90.60;;;;;;5042392;28;20041;-71
2023/06/16 11:12:46;;;;;;;4.72;3.08;;;24.70;91.30;;;;;;5069303;28;20040;-72
2023/06/16 11:15:12;;;;;;;5.85;3.00;;;25.30;90.70;;;;;;5049688;28;20047;-71
2023/06/16 11:17:38;;;;;;;6.03;3.75;;;24.70;91.50;;;;;;5051742;28;20040;-71
2023/06/16 11:20:06;;;;;;;4.65;2.33;;;24.40;91.30;;;;;;5049697;28;20633;-71
2023/06/16 11:22:36;;;;;;;5.85;2.85;;;25.00;91.40;;;;;;5027313;28;20044;-72
2023/06/16 11:25:05;;;;;;;3.08;2.20;;;24.50;90.90;;;;;;5044050;28;20044;-72
2023/06/16 11:27:32;;;;;;;6.25;2.65;;;24.70;90.90;;;;;;5050905;28;20146;-71
2023/06/16 11:30:00;;;;;;;6.78;2.85;;;24.40;90.80;;;;;;5031439;28;20036;-72
2023/06/16 11:32:29;;;;;;;4.75;3.03;;;25.00;90.90;;;;;;5044073;28;20032;-72
2023/06/16 11:34:56;;;;;;;6.45;2.70;;;24.60;90.50;;;;;;5044753;28;20139;-72
2023/06/16 11:37:38;;;;;;;7.65;2.88;;;24.50;90.60;;;;;;5043588;28;20045;-72
2023/06/16 11:40:05;;;;;;;5.83;3.67;;;25.20;90.70;;;;;;5043223;28;20040;-72
2023/06/16 11:42:31;;;;;;;5.88;3.97;;;25.00;90.20;;;;;;5046428;28;20420;-72
2023/06/16 11:44:56;;;;;;;3.70;2.20;;;25.20;90.60;;;;;;5043768;28;20045;-72
2023/06/16 11:47:22;;;;;;;3.78;2.63;;;25.40;90.70;;;;;;5044132;28;20043;-72
2023/06/16 11:49:47;;;;;;;4.97;2.97;;;26.10;90.40;;;;;;5040590;28;20560;-72
2023/06/16 11:52:15;;;;;;;6.80;3.53;;;25.50;90.30;;;;;;5019386;28;20029;-72
2023/06/16 11:54:40;;;;;;;3.80;2.20;;;25.40;90.30;;;;;;5055401;28;20064;-71
2023/06/16 11:57:06;;;;;;;3.40;2.25;;;25.10;90.10;;;;;;5031613;28;20099;-71
2023/06/16 11:59:32;;;;;;;3.78;2.70;;;25.30;89.90;;;;;;5042679;28;20413;-71
2023/06/16 12:02:00;;;;;;;4.35;3.13;;;25.30;89.20;;;;;;5041701;28;20061;-71
2023/06/16 12:04:26;;;;;;;6.20;2.97;;;25.30;89.50;;;;;;5055194;28;20048;-71
2023/06/16 12:06:54;;;;;;;3.35;2.50;;;25.40;89.60;;;;;;5052793;28;20059;-71
2023/06/16 12:09:20;;;;;;;5.93;2.90;;;25.50;89.90;;;;;;5050068;28;20044;-71
2023/06/16 12:11:46;;;;;;;2.45;2.25;;;25.30;88.60;;;;;;5056206;28;20043;-71
2023/06/16 12:14:22;;;;;;;7.47;3.95;;;25.00;88.40;;;;;;5055806;28;20033;-71
2023/06/16 12:16:49;;;;;;;5.75;2.30;;;25.30;89.90;;;;;;5066734;28;20403;-71
2023/06/16 12:19:19;;;;;;;3.75;2.17;;;26.10;89.10;;;;;;5033908;28;20039;-70
2023/06/16 12:21:52;;;;;;;5.35;3.17;;;25.90;88.70;;;;;;5042638;28;20492;-71
2023/06/16 12:24:21;;;;;;;5.82;3.17;;;25.30;87.60;;;;;;5028764;28;20060;-71
2023/06/16 12:26:48;;;;;;;5.45;3.30;;;25.70;87.90;;;;;;5036698;28;20033;-69
2023/06/16 12:29:15;;;;;;;4.65;3.10;;;25.80;88.70;;;;;;5057502;28;20036;-71
2023/06/16 12:32:03;;;;;;;3.67;3.10;;;25.80;88.40;;;;;;5052327;28;20037;-70
2023/06/16 12:34:35;;;;;;;6.72;3.92;;;26.10;89.50;;;;;;5038294;28;20036;-71
2023/06/16 12:37:10;;;;;;;5.93;4.80;;;25.70;88.30;;;;;;5045127;28;20087;-70
2023/06/16 12:39:37;;;;;;;8.75;4.88;;;25.50;88.30;;;;;;5035275;28;20051;-70
2023/06/16 12:42:08;;;;;;;2.88;2.25;;;25.70;89.40;;;;;;5048032;28;20040;-71